Time;durP1;ratioP1;P1;durP2;ratioP2;P2;SDS_P1;SDS_P2;PMS_P1;PMS_P2;Temp;Humidity;BMP_temperature;BMP_pressure;BME280_temperature;BME280_humidity;BME280_pressure;Samples;Min_cycle;Max_cycle;Signal;HPM_P1;HPM_P2
2022/06/04 00:01:48;;;;;;;22.67;20.67;;;16.20;99.90;;;15.28;100.00;97924.69;4982049;28;20479;-73
2022/06/04 00:04:17;;;;;;;24.03;21.90;;;16.20;99.90;;;15.41;100.00;97934.41;4985210;28;20513;-80
2022/06/04 00:06:46;;;;;;;26.03;23.77;;;16.30;99.90;;;15.26;100.00;97943.19;4985322;28;21235;-80
2022/06/04 00:09:14;;;;;;;25.57;23.30;;;16.20;99.90;;;15.24;100.00;97945.31;4991629;28;20464;-76
2022/06/04 00:17:14;;;;;;;23.60;21.40;;;15.90;99.90;;;14.83;100.00;97915.53;5014907;28;21170;-79
2022/06/04 00:19:42;;;;;;;27.10;24.40;;;16.00;99.90;;;15.23;100.00;97970.06;4984478;28;20474;-75
2022/06/04 00:22:11;;;;;;;26.43;23.73;;;16.10;99.90;;;15.20;100.00;97951.50;5005562;28;20482;-79
2022/06/04 00:24:38;;;;;;;25.37;23.17;;;16.20;99.90;;;15.27;100.00;97961.16;5060550;28;20463;-72
2022/06/04 00:27:06;;;;;;;23.20;20.90;;;16.20;99.90;;;15.22;100.00;97947.44;4981377;28;20472;-78
2022/06/04 00:29:34;;;;;;;24.30;22.30;;;16.10;99.90;;;15.18;100.00;97950.94;4979079;28;20954;-77
2022/06/04 00:32:02;;;;;;;26.57;24.10;;;16.10;99.90;;;15.18;100.00;97957.19;4980204;28;20468;-74
2022/06/04 00:34:29;;;;;;;26.27;23.87;;;16.10;99.90;;;15.11;100.00;97948.38;4984833;28;20469;-75
2022/06/04 00:36:57;;;;;;;27.13;24.47;;;16.00;99.90;;;15.01;100.00;97947.13;4985257;28;20471;-72
2022/06/04 00:39:25;;;;;;;26.03;23.87;;;15.90;99.90;;;14.98;100.00;97961.22;4992576;28;20482;-78
2022/06/04 00:41:59;;;;;;;28.10;25.17;;;15.90;99.90;;;14.96;100.00;97946.19;5019190;28;20467;-67
2022/06/04 00:45:56;;;;;;;28.27;25.70;;;15.80;99.90;;;14.76;100.00;97952.09;5001062;28;20468;-68
2022/06/04 00:48:24;;;;;;;28.87;26.07;;;15.70;99.90;;;14.83;100.00;97955.50;4976019;28;20474;-78
2022/06/04 00:50:51;;;;;;;28.60;25.83;;;15.70;99.90;;;14.79;100.00;97935.31;4983471;28;21068;-81
2022/06/04 00:53:19;;;;;;;31.90;28.50;;;15.80;99.90;;;14.88;100.00;97958.31;4980943;28;20467;-79
2022/06/04 00:56:03;;;;;;;29.73;26.73;;;15.80;99.90;;;14.27;100.00;97869.94;4979200;28;20456;-78
2022/06/04 00:58:49;;;;;;;32.03;28.90;;;15.70;99.90;;;14.90;100.00;97945.28;5007827;28;20976;-79
2022/06/04 01:01:25;;;;;;;29.50;26.73;;;15.80;99.90;;;14.73;100.00;97951.53;4977197;28;20487;-80
2022/06/04 01:04:09;;;;;;;30.77;27.63;;;15.70;99.90;;;14.52;100.00;97944.03;4986533;28;20466;-70
2022/06/04 01:06:51;;;;;;;28.90;26.00;;;15.60;99.90;;;14.62;100.00;97960.53;4964451;28;20453;-71
2022/06/04 01:09:57;;;;;;;30.70;27.63;;;15.60;99.90;;;14.67;100.00;97957.09;4981365;28;20465;-77
2022/06/04 01:12:52;;;;;;;31.50;28.43;;;15.60;99.90;;;14.75;100.00;97958.63;4962987;28;20554;-76
2022/06/04 01:15:30;;;;;;;31.00;28.00;;;15.60;99.90;;;14.72;100.00;97966.19;4983463;28;20511;-78
2022/06/04 01:18:14;;;;;;;32.00;28.70;;;15.60;99.90;;;14.72;100.00;97949.88;4985722;28;20501;-78
2022/06/04 01:20:54;;;;;;;31.80;28.60;;;15.70;99.90;;;14.85;100.00;97975.13;4988832;28;20562;-79
2022/06/04 01:24:13;;;;;;;30.33;27.53;;;15.70;99.90;;;14.75;100.00;97974.94;4982526;28;20469;-79
2022/06/04 01:27:16;;;;;;;30.70;27.87;;;15.60;99.90;;;14.67;100.00;97966.09;4927202;28;20473;-77
2022/06/04 01:30:02;;;;;;;29.47;26.63;;;15.60;99.90;;;14.53;100.00;97954.66;4982685;28;20463;-78
2022/06/04 01:32:33;;;;;;;26.67;24.27;;;15.60;99.90;;;14.60;100.00;97978.97;4988207;28;20536;-75
2022/06/04 01:35:13;;;;;;;29.60;26.80;;;15.50;99.90;;;14.53;100.00;97981.84;4992979;28;20652;-79
2022/06/04 01:37:47;;;;;;;27.70;25.30;;;15.50;99.90;;;14.47;100.00;97981.97;4982618;28;20462;-77
2022/06/04 01:43:11;;;;;;;29.63;26.80;;;15.40;99.90;;;14.15;100.00;97940.59;4985209;28;20454;-72
2022/06/04 01:45:42;;;;;;;29.37;26.37;;;15.40;99.90;;;14.51;100.00;97985.88;4991576;28;20718;-77
2022/06/04 01:48:11;;;;;;;29.83;27.00;;;15.40;99.90;;;14.32;100.00;97939.84;4984320;28;20567;-73
2022/06/04 01:50:44;;;;;;;28.73;25.93;;;15.60;99.90;;;14.63;100.00;97986.66;4996136;28;20460;-74
2022/06/04 01:53:14;;;;;;;30.30;27.40;;;15.50;99.90;;;14.67;100.00;97982.41;4994572;28;20467;-76
2022/06/04 01:55:48;;;;;;;27.40;25.00;;;15.60;99.90;;;14.56;100.00;97977.81;4996653;28;20466;-80
2022/06/04 01:58:22;;;;;;;26.83;24.57;;;15.50;99.90;;;14.49;100.00;97982.59;4988964;28;20485;-75
2022/06/04 02:00:55;;;;;;;26.83;24.30;;;15.40;99.90;;;14.40;100.00;97949.50;4986706;28;20889;-78
2022/06/04 02:03:29;;;;;;;27.60;25.10;;;15.40;99.90;;;14.43;100.00;97974.31;4997723;28;20884;-79
2022/06/04 02:06:00;;;;;;;28.30;25.47;;;15.40;99.90;;;14.35;100.00;97977.44;5045743;28;20446;-70
2022/06/04 02:08:33;;;;;;;26.77;24.27;;;15.30;99.90;;;14.36;100.00;97967.38;4989171;28;20463;-78
2022/06/04 02:11:08;;;;;;;27.63;25.30;;;15.30;99.90;;;14.47;100.00;97957.53;4986519;28;20459;-75
2022/06/04 02:13:38;;;;;;;27.50;24.77;;;15.40;99.90;;;14.47;100.00;97949.38;4985111;28;20474;-76
2022/06/04 02:16:11;;;;;;;26.97;24.63;;;15.40;99.90;;;14.39;100.00;97929.66;4978383;28;20467;-78
2022/06/04 02:18:39;;;;;;;27.60;25.20;;;15.40;99.90;;;14.57;100.00;97944.13;4984704;28;20471;-73
2022/06/04 02:21:06;;;;;;;20.60;18.90;;;15.50;99.90;;;14.94;100.00;97930.16;4980277;28;20490;-79
2022/06/04 02:23:36;;;;;;;23.53;21.60;;;15.70;99.90;;;15.23;100.00;97931.97;4984121;28;20467;-81
2022/06/04 02:26:03;;;;;;;20.30;18.50;;;15.90;99.90;;;15.09;100.00;97928.72;4994046;28;20470;-75
2022/06/04 02:28:31;;;;;;;23.47;21.30;;;15.90;99.90;;;14.90;100.00;97934.41;4986665;28;23184;-77
2022/06/04 02:31:07;;;;;;;16.63;15.23;;;15.80;99.90;;;15.54;100.00;97946.88;4995967;28;20814;-71
2022/06/04 02:33:49;;;;;;;17.50;16.10;;;16.00;99.90;;;16.13;100.00;97931.88;5013235;28;20473;-79
2022/06/04 02:36:29;;;;;;;21.80;19.47;;;16.60;99.90;;;15.32;100.00;97929.66;4986993;28;20706;-76
2022/06/04 02:39:06;;;;;;;27.77;20.70;;;16.40;99.90;;;14.87;100.00;97919.44;4989649;28;20455;-79
2022/06/04 02:41:41;;;;;;;30.23;21.40;;;15.90;99.90;;;14.46;100.00;97902.34;4988907;28;20486;-75
2022/06/04 02:44:18;;;;;;;26.40;24.00;;;15.70;99.90;;;14.42;100.00;97926.47;4989406;28;20740;-77
2022/06/04 02:46:53;;;;;;;25.43;22.77;;;15.50;99.90;;;14.35;100.00;97933.09;4990120;28;20475;-79
2022/06/04 02:49:27;;;;;;;46.00;25.80;;;15.40;99.90;;;14.29;100.00;97934.91;5000629;28;20467;-74
2022/06/04 02:51:56;;;;;;;41.80;25.77;;;15.30;99.90;;;13.75;100.00;97859.97;4997418;28;20472;-74
2022/06/04 02:54:29;;;;;;;42.87;25.90;;;15.20;99.90;;;14.24;100.00;97943.78;4994299;28;20491;-76
2022/06/04 02:56:59;;;;;;;28.10;25.17;;;15.20;99.90;;;14.22;100.00;97950.53;5000837;28;20468;-76
2022/06/04 02:59:28;;;;;;;30.80;24.23;;;15.20;99.90;;;14.02;100.00;97943.59;4989285;28;20462;-70
2022/06/04 03:02:03;;;;;;;39.50;28.20;;;15.10;99.90;;;13.00;100.00;97781.84;4992880;28;20493;-78
2022/06/04 03:04:42;;;;;;;30.13;26.17;;;15.10;99.90;;;14.02;100.00;97951.75;4997951;28;20532;-76
2022/06/04 03:07:10;;;;;;;30.77;26.87;;;15.00;99.90;;;13.98;100.00;97964.16;5017012;28;20457;-78
2022/06/04 03:09:39;;;;;;;75.87;29.40;;;15.00;99.90;;;13.97;100.00;97959.78;4985641;28;20461;-78
2022/06/04 03:12:08;;;;;;;50.77;27.27;;;15.00;99.90;;;13.98;100.00;97966.88;4986324;28;20459;-77
2022/06/04 03:14:36;;;;;;;107.47;30.13;;;14.90;99.90;;;13.83;100.00;97965.47;4987084;28;20939;-80
2022/06/04 03:17:08;;;;;;;68.37;27.00;;;14.90;99.90;;;13.79;100.00;97966.19;5024329;28;20462;-80
2022/06/04 03:19:36;;;;;;;152.33;36.47;;;14.80;99.90;;;13.78;100.00;97967.25;4990723;28;20465;-75
2022/06/04 03:22:03;;;;;;;49.40;30.20;;;14.80;99.90;;;13.85;100.00;97974.19;4981917;28;20505;-77
2022/06/04 03:24:30;;;;;;;33.10;28.07;;;14.80;99.90;;;13.99;100.00;97990.25;4987932;28;20468;-79
2022/06/04 03:26:58;;;;;;;31.40;26.23;;;14.90;99.90;;;13.90;100.00;97980.84;4999518;28;20473;-73
2022/06/04 03:29:25;;;;;;;31.27;27.63;;;14.90;99.90;;;13.94;100.00;97982.00;5003051;28;20485;-67
2022/06/04 03:31:53;;;;;;;29.43;26.53;;;14.90;99.90;;;14.09;100.00;97979.63;4997672;28;20448;-68
2022/06/04 03:34:22;;;;;;;30.10;27.00;;;15.00;99.90;;;14.10;100.00;97969.56;5005748;28;20911;-73
2022/06/04 03:36:49;;;;;;;32.23;26.37;;;15.10;99.90;;;13.57;100.00;97882.66;4988130;28;20497;-77
2022/06/04 03:39:17;;;;;;;30.87;27.77;;;15.10;99.90;;;14.21;100.00;97968.72;4989696;28;20456;-79
2022/06/04 03:41:44;;;;;;;30.57;27.40;;;15.20;99.90;;;14.40;100.00;97961.22;4988221;28;20484;-73
2022/06/04 03:44:11;;;;;;;30.00;26.93;;;15.30;99.90;;;14.35;100.00;97954.84;4990124;28;20970;-81
2022/06/04 03:46:39;;;;;;;28.67;26.00;;;15.40;99.90;;;14.45;100.00;97961.31;4989078;28;20517;-76
2022/06/04 03:49:06;;;;;;;28.13;25.27;;;15.40;99.90;;;14.48;100.00;97960.00;5011580;28;21001;-73
2022/06/04 03:51:37;;;;;;;28.40;25.83;;;15.50;99.90;;;14.55;100.00;97959.88;5002750;28;20468;-76
2022/06/04 03:54:04;;;;;;;28.43;25.60;;;15.50;99.90;;;14.64;100.00;97961.13;4996862;28;20471;-75
2022/06/04 03:56:32;;;;;;;27.27;24.60;;;15.60;99.90;;;14.72;100.00;97966.19;4994078;28;20471;-71
2022/06/04 03:58:59;;;;;;;25.90;23.50;;;15.60;99.90;;;14.76;100.00;97963.81;4988958;28;20455;-77
2022/06/04 04:01:29;;;;;;;28.43;25.83;;;15.70;99.90;;;14.83;100.00;97960.94;4984357;28;20494;-73
2022/06/04 04:03:58;;;;;;;25.97;23.67;;;15.80;99.90;;;14.76;100.00;97947.50;4985583;28;20459;-78
2022/06/04 04:06:29;;;;;;;24.40;22.20;;;15.80;99.90;;;15.22;100.00;97969.22;4985339;28;20459;-72
2022/06/04 04:08:58;;;;;;;20.60;18.60;;;16.10;99.90;;;16.35;100.00;97962.91;5015190;28;20458;-80
2022/06/04 04:11:28;;;;;;;22.20;20.40;;;17.00;99.90;;;16.73;97.59;97958.44;4986676;28;20469;-71
2022/06/04 04:13:55;;;;;;;15.60;14.20;;;17.70;99.90;;;16.90;96.22;97952.84;4979488;28;20481;-76
2022/06/04 04:16:24;;;;;;;12.40;10.37;;;17.90;99.90;;;17.50;93.46;97955.56;4988794;28;21043;-79
2022/06/04 04:18:51;;;;;;;11.90;10.33;;;18.40;99.90;;;18.92;82.79;97950.44;4976574;28;21828;-77
2022/06/04 04:21:22;;;;;;;12.40;11.37;;;19.50;93.40;;;19.01;79.48;97953.50;4981704;28;20471;-75
2022/06/04 04:23:50;;;;;;;15.50;14.20;;;19.90;91.40;;;18.01;84.37;97956.97;4978453;28;20480;-72
2022/06/04 04:26:19;;;;;;;16.20;14.90;;;19.40;91.70;;;17.28;87.79;97942.84;4995067;28;21240;-75
2022/06/04 04:28:46;;;;;;;17.80;16.33;;;18.60;93.60;;;17.09;89.14;97945.16;4979462;28;21697;-80
2022/06/04 04:31:18;;;;;;;18.20;16.80;;;18.40;94.80;;;16.92;90.59;97928.91;4977365;28;20472;-78
2022/06/04 04:33:46;;;;;;;18.90;17.30;;;18.30;96.00;;;16.76;91.29;97946.19;4980842;28;20459;-77
2022/06/04 04:36:13;;;;;;;19.33;17.63;;;18.10;96.40;;;16.40;94.99;97947.44;4983440;28;20464;-76
2022/06/04 04:38:41;;;;;;;19.73;18.03;;;17.70;99.90;;;16.89;92.90;97962.13;4978934;28;20879;-76
2022/06/04 04:41:10;;;;;;;17.20;15.50;;;17.80;99.90;;;17.34;89.63;97962.00;4967149;28;20506;-73
2022/06/04 04:43:39;;;;;;;20.73;18.70;;;18.10;98.70;;;17.53;87.43;97944.13;4977128;28;20499;-73
2022/06/04 04:46:10;;;;;;;19.90;17.87;;;18.50;96.30;;;16.91;87.98;97861.75;4979477;28;20472;-75
2022/06/04 04:48:38;;;;;;;17.63;16.23;;;18.50;96.10;;;17.12;89.05;97938.38;4994157;28;20445;-77
2022/06/04 04:51:06;;;;;;;17.33;15.93;;;18.40;95.60;;;17.16;89.88;97966.78;4995393;28;21008;-77
2022/06/04 04:53:34;;;;;;;16.13;14.93;;;18.40;95.30;;;17.13;90.70;97967.31;4985040;28;20456;-77
2022/06/04 04:56:01;;;;;;;16.33;14.87;;;18.40;96.00;;;17.49;88.76;97970.31;4977289;28;20509;-75
2022/06/04 04:58:28;;;;;;;18.23;16.73;;;18.70;94.60;;;18.21;84.83;97974.59;4981233;28;20460;-75
2022/06/04 05:00:57;;;;;;;17.00;15.50;;;19.30;92.70;;;18.63;82.70;97964.63;4985017;28;20980;-74
2022/06/04 05:03:25;;;;;;;17.30;16.00;;;19.80;91.60;;;19.44;77.95;97962.25;4986731;28;20478;-73
2022/06/04 05:06:00;;;;;;;15.80;14.60;;;20.70;89.90;;;19.25;78.06;97970.19;4985005;28;20472;-74
2022/06/04 05:08:27;;;;;;;17.00;15.60;;;20.80;88.50;;;19.30;77.21;97966.66;4983714;28;20509;-68
2022/06/04 05:10:54;;;;;;;16.40;15.10;;;20.90;87.90;;;19.84;75.49;97983.59;4975375;28;20460;-78
2022/06/04 05:13:21;;;;;;;16.43;15.00;;;21.20;87.90;;;20.26;74.03;97982.41;4976570;28;20468;-76
2022/06/04 05:15:49;;;;;;;17.50;15.93;;;21.50;86.90;;;20.75;73.50;97986.28;4974081;28;20470;-70
2022/06/04 05:18:17;;;;;;;16.40;15.10;;;21.80;87.10;;;20.88;71.69;97997.78;4975128;28;20559;-75
2022/06/04 05:20:45;;;;;;;15.27;14.07;;;22.10;86.60;;;21.03;69.85;97988.63;4981614;28;20477;-70
2022/06/04 05:23:12;;;;;;;15.70;14.40;;;22.60;84.00;;;20.45;71.97;98001.78;4976078;28;20957;-74
2022/06/04 05:25:39;;;;;;;16.23;14.83;;;22.40;83.50;;;20.71;70.65;98004.44;4982174;28;20746;-75
2022/06/04 05:28:07;;;;;;;16.60;15.10;;;22.50;83.40;;;20.89;70.33;97997.50;4979327;28;20487;-70
2022/06/04 05:30:35;;;;;;;14.83;13.63;;;22.40;83.70;;;21.02;69.59;98000.72;4978155;28;20477;-74
2022/06/04 05:33:02;;;;;;;15.63;14.40;;;22.70;83.20;;;20.84;70.92;98016.75;4988448;28;20475;-72
2022/06/04 05:35:31;;;;;;;14.63;13.43;;;22.70;83.10;;;21.49;68.08;98006.69;4979449;28;20475;-74
2022/06/04 05:37:58;;;;;;;14.70;13.50;;;22.70;83.10;;;20.04;73.28;98013.72;4981510;28;20487;-73
2022/06/04 05:40:26;;;;;;;15.97;14.77;;;21.70;84.20;;;19.03;77.50;98012.38;4999700;28;20469;-77
2022/06/04 05:42:53;;;;;;;15.43;14.13;;;20.60;87.00;;;18.52;79.40;98021.22;5007408;28;20498;-73
2022/06/04 05:45:20;;;;;;;15.10;13.90;;;20.00;88.10;;;18.21;82.24;98019.19;4981529;28;20528;-71
2022/06/04 05:47:47;;;;;;;17.00;15.60;;;19.50;90.50;;;18.52;80.85;98007.53;4968492;28;20461;-72
2022/06/04 05:50:14;;;;;;;16.13;14.83;;;19.60;90.70;;;19.00;78.89;98009.34;4987218;28;20480;-72
2022/06/04 05:52:44;;;;;;;16.93;15.57;;;19.80;90.80;;;19.02;79.37;98007.97;4994951;28;20468;-76
2022/06/04 05:55:12;;;;;;;15.77;14.57;;;19.90;90.60;;;19.61;76.65;98016.78;4976663;28;21252;-73
2022/06/04 05:57:39;;;;;;;16.13;14.83;;;20.30;90.00;;;19.48;76.75;98026.34;4976908;28;20536;-69
2022/06/04 06:00:08;;;;;;;17.30;15.90;;;20.40;89.70;;;19.42;77.34;98019.25;4976645;28;20905;-77
2022/06/04 06:02:36;;;;;;;17.20;15.80;;;20.40;89.70;;;19.58;77.06;98022.81;4978098;28;20480;-83
2022/06/04 06:05:05;;;;;;;18.40;17.00;;;20.40;90.00;;;19.86;74.01;98028.81;4979225;28;20475;-77
2022/06/04 06:07:32;;;;;;;18.57;17.13;;;20.60;88.10;;;19.73;75.09;98024.72;5018001;28;20453;-80
2022/06/04 06:10:02;;;;;;;19.03;17.43;;;20.70;88.00;;;19.76;75.25;98026.91;4986278;28;20533;-77
2022/06/04 06:12:29;;;;;;;18.40;16.97;;;20.60;88.40;;;19.91;74.96;98027.97;4980631;28;20465;-82
2022/06/04 06:14:56;;;;;;;18.83;17.17;;;20.80;88.50;;;19.82;76.34;98036.78;4985406;28;20520;-81
2022/06/04 06:17:24;;;;;;;18.53;16.93;;;20.70;89.10;;;19.70;76.09;98033.50;5022885;28;20460;-75
2022/06/04 06:19:53;;;;;;;17.20;15.90;;;20.60;88.70;;;19.75;75.87;98035.41;4986984;28;20525;-80
2022/06/04 06:22:23;;;;;;;17.90;16.20;;;20.60;88.80;;;19.12;79.15;98045.50;4992435;28;20585;-79
2022/06/04 06:24:50;;;;;;;19.60;18.00;;;20.30;90.10;;;19.21;78.84;98035.69;4983076;28;20471;-75
2022/06/04 06:27:19;;;;;;;21.37;19.47;;;20.20;90.40;;;18.98;80.43;98048.72;4986717;28;20472;-81
2022/06/04 06:29:46;;;;;;;20.13;18.20;;;20.00;90.90;;;19.05;81.04;98044.97;4992436;28;20651;-74
2022/06/04 06:32:14;;;;;;;24.97;22.77;;;19.90;91.60;;;19.12;81.24;98048.25;4982108;28;20478;-79
2022/06/04 06:34:41;;;;;;;27.37;24.97;;;19.80;92.00;;;18.77;83.50;98060.72;4982142;28;20478;-71
2022/06/04 06:37:08;;;;;;;28.03;25.43;;;19.80;92.60;;;18.71;83.28;98054.41;4978922;28;20464;-74
2022/06/04 06:39:35;;;;;;;28.00;25.10;;;19.70;92.50;;;18.62;83.27;98051.34;4983570;28;20558;-76
2022/06/04 06:42:03;;;;;;;31.90;28.70;;;19.60;92.40;;;18.05;84.49;98003.78;4983611;28;20530;-75
2022/06/04 06:44:31;;;;;;;31.20;28.23;;;19.40;93.10;;;18.05;86.44;98056.53;4986670;28;20447;-76
2022/06/04 06:46:58;;;;;;;32.27;28.97;;;19.10;94.00;;;17.89;87.11;98060.22;4981245;28;20452;-76
2022/06/04 06:49:29;;;;;;;34.57;30.97;;;18.90;94.80;;;17.78;88.29;98060.13;4988411;28;20869;-77
2022/06/04 06:51:58;;;;;;;33.53;30.10;;;18.80;96.00;;;17.81;87.93;98064.25;4985456;28;20456;-72
2022/06/04 06:54:31;;;;;;;33.50;30.23;;;18.70;95.90;;;17.88;88.34;98075.78;4983494;28;20455;-75
2022/06/04 06:56:58;;;;;;;39.13;31.63;;;18.70;96.90;;;17.89;87.91;98071.16;4996420;28;21151;-74
2022/06/04 06:59:26;;;;;;;31.83;28.30;;;18.70;96.70;;;17.82;88.16;98052.25;5018207;28;20460;-76
2022/06/04 07:01:58;;;;;;;34.80;31.10;;;18.70;96.80;;;17.68;90.20;98060.06;4994962;28;20468;-76
2022/06/04 07:04:26;;;;;;;36.73;30.33;;;18.70;98.10;;;17.55;91.33;98040.28;4980972;28;20483;-72
2022/06/04 07:06:56;;;;;;;35.70;30.10;;;18.60;99.20;;;17.44;92.03;98054.94;4982589;28;21027;-74
2022/06/04 07:09:27;;;;;;;31.43;28.03;;;18.50;99.90;;;17.56;90.21;98052.03;4981155;28;20475;-78
2022/06/04 07:11:55;;;;;;;31.33;28.03;;;18.50;98.40;;;17.43;90.82;98036.91;4980025;28;20459;-79
2022/06/04 07:14:23;;;;;;;32.17;28.77;;;18.40;99.00;;;17.59;90.84;98050.69;4983941;28;20470;-75
2022/06/04 07:16:51;;;;;;;34.00;28.67;;;18.50;99.30;;;17.60;90.02;98035.94;4979910;28;20970;-79
2022/06/04 07:19:23;;;;;;;30.20;27.00;;;18.60;98.80;;;17.73;90.27;98067.47;4977134;28;20910;-73
2022/06/04 07:21:50;;;;;;;31.60;28.37;;;18.60;98.90;;;17.92;89.89;98065.97;4980510;28;20480;-78
2022/06/04 07:24:18;;;;;;;28.80;25.80;;;18.80;98.70;;;18.30;86.23;98087.00;4996123;28;20463;-80
2022/06/04 07:26:46;;;;;;;29.20;26.33;;;19.00;95.70;;;18.22;86.06;98096.53;4976828;28;20539;-79
2022/06/04 07:29:13;;;;;;;26.70;24.10;;;19.10;94.90;;;18.14;86.09;98097.06;5024414;28;20459;-76
2022/06/04 07:31:41;;;;;;;28.10;25.50;;;19.10;94.60;;;18.46;83.57;98098.88;4990602;28;20460;-76
2022/06/04 07:34:09;;;;;;;27.60;25.17;;;19.30;93.30;;;18.33;83.71;98113.84;4980999;28;20456;-72
2022/06/04 07:36:40;;;;;;;23.90;21.70;;;19.30;92.90;;;18.33;83.69;98108.34;5029750;27;20494;-73
2022/06/04 07:39:10;;;;;;;26.10;23.50;;;19.30;93.30;;;19.02;80.99;98124.88;4986682;28;20507;-79
2022/06/04 07:41:40;;;;;;;27.97;25.27;;;19.50;93.00;;;19.30;78.58;98120.88;4975872;28;20477;-76
2022/06/04 07:44:08;;;;;;;25.63;23.17;;;19.90;91.70;;;19.70;78.82;98112.97;4973642;28;20487;-78
2022/06/04 07:46:37;;;;;;;27.03;24.50;;;20.30;91.60;;;20.18;75.37;98111.88;4974245;28;20467;-75
2022/06/04 07:49:07;;;;;;;26.93;24.33;;;20.80;90.20;;;20.74;72.74;98118.34;4998608;28;20615;-76
2022/06/04 07:51:36;;;;;;;26.37;24.00;;;21.30;88.70;;;20.31;74.12;98119.53;5006688;28;20474;-75
2022/06/04 07:54:07;;;;;;;25.23;22.93;;;21.20;88.20;;;20.83;71.19;98115.88;4976677;28;20468;-71
2022/06/04 07:56:34;;;;;;;28.13;25.43;;;21.60;87.20;;;20.50;73.06;98121.69;4977150;28;21062;-79
2022/06/04 07:59:01;;;;;;;25.47;23.07;;;21.40;87.50;;;20.60;72.41;98080.50;4982146;28;20459;-76
2022/06/04 08:01:29;;;;;;;26.57;24.07;;;21.60;87.70;;;20.79;72.48;98129.31;4982746;28;20463;-74
2022/06/04 08:03:57;;;;;;;27.97;25.27;;;21.80;87.30;;;21.01;71.11;98122.66;4980492;28;20463;-74
2022/06/04 08:06:25;;;;;;;27.73;25.30;;;21.70;86.90;;;21.13;70.99;98130.56;4980083;28;20559;-79
2022/06/04 08:08:59;;;;;;;27.80;25.10;;;21.70;87.20;;;21.22;71.07;98126.94;4970097;28;20715;-73
2022/06/04 08:11:35;;;;;;;29.33;26.33;;;21.90;87.00;;;20.90;71.70;98106.22;4975601;28;20551;-76
2022/06/04 08:14:14;;;;;;;29.43;26.63;;;21.80;86.80;;;20.65;73.13;98123.59;4982406;28;20491;-75
2022/06/04 08:16:44;;;;;;;29.67;26.53;;;21.70;87.00;;;20.97;71.88;98116.06;4997005;28;20532;-72
2022/06/04 08:19:12;;;;;;;25.93;23.37;;;21.70;87.00;;;21.40;69.92;98116.41;4991571;28;20470;-78
2022/06/04 08:21:41;;;;;;;29.27;26.40;;;22.00;86.50;;;21.79;68.72;98099.13;4979932;28;22371;-76
2022/06/04 08:24:12;;;;;;;28.10;25.47;;;22.30;85.90;;;21.18;69.65;98103.06;4974582;28;21684;-74
2022/06/04 08:26:42;;;;;;;29.10;26.50;;;22.20;85.30;;;21.14;70.37;98115.72;4984468;28;20452;-78
2022/06/04 08:29:09;;;;;;;27.67;24.97;;;22.10;85.60;;;21.20;69.42;98115.44;4988364;28;20503;-74
2022/06/04 08:31:37;;;;;;;27.93;25.40;;;22.00;85.30;;;21.41;69.62;98115.28;4980147;28;20533;-72
2022/06/04 08:34:04;;;;;;;28.57;25.70;;;22.10;85.70;;;;;;4978317;28;20458;-73
2022/06/04 08:36:32;;;;;;;27.03;24.63;;;22.50;84.50;;;22.24;66.26;98122.09;4971815;28;20466;-73
2022/06/04 08:38:59;;;;;;;29.93;27.23;;;22.70;84.30;;;22.45;65.96;98122.72;4977501;28;20469;-73
2022/06/04 08:41:51;;;;;;;28.03;25.50;;;23.10;84.10;;;22.16;67.21;98127.13;4976981;28;20470;-75
2022/06/04 08:44:25;;;;;;;28.63;25.83;;;22.90;84.30;;;21.83;67.85;98123.28;4984479;28;20808;-74
2022/06/04 08:46:57;;;;;;;31.00;28.00;;;22.80;84.30;;;20.96;70.96;98139.97;4987559;28;20986;-77
2022/06/04 08:49:29;;;;;;;32.50;29.40;;;22.20;85.00;;;20.95;71.29;98141.09;4983702;28;20489;-78
2022/06/04 08:51:58;;;;;;;31.57;28.37;;;22.00;86.00;;;21.49;69.97;98150.44;4977705;28;20470;-80
2022/06/04 08:57:36;;;;;;;31.73;28.67;;;22.00;86.30;;;21.98;68.28;98153.41;5012360;28;20468;-75
2022/06/04 09:00:13;;;;;;;29.27;26.47;;;22.50;85.60;;;21.89;68.02;98158.72;5018866;28;21586;-73
2022/06/04 09:03:14;;;;;;;29.93;27.30;;;22.60;84.90;;;22.20;67.70;98160.38;4974824;28;20569;-79
2022/06/04 09:06:08;;;;;;;27.53;24.93;;;22.80;84.90;;;22.20;66.78;98160.38;4972482;28;20491;-75
2022/06/04 09:08:50;;;;;;;31.33;28.23;;;23.00;84.60;;;22.27;67.35;98160.88;4975523;28;20476;-78
2022/06/04 09:11:27;;;;;;;27.57;24.90;;;22.90;84.40;;;22.19;67.75;98161.47;4977503;28;20525;-81
2022/06/04 09:14:30;;;;;;;30.87;27.83;;;23.00;84.40;;;21.40;69.48;98152.13;4978238;28;20478;-81
2022/06/04 09:17:05;;;;;;;29.60;26.77;;;22.60;84.30;;;21.30;69.95;98144.75;4973039;28;20555;-79
2022/06/04 09:19:36;;;;;;;31.57;28.77;;;22.20;85.00;;;21.07;70.87;98124.28;4972563;28;20754;-71
2022/06/04 09:22:17;;;;;;;30.77;27.57;;;22.20;85.50;;;20.64;73.47;98122.75;4974506;28;20476;-82
2022/06/04 09:24:45;;;;;;;31.37;28.30;;;21.70;86.30;;;20.59;74.34;98120.03;4998060;28;20449;-77
2022/06/04 09:27:30;;;;;;;31.13;28.33;;;21.50;87.50;;;19.96;78.09;98116.56;4984193;28;20475;-78
2022/06/04 09:30:11;;;;;;;34.87;31.60;;;21.20;89.70;;;19.09;83.43;98098.88;4982666;28;21048;-81
2022/06/04 09:33:02;;;;;;;33.33;30.03;;;20.40;91.90;;;18.34;89.25;98072.56;4984449;28;20911;-74
2022/06/04 09:35:33;;;;;;;36.90;33.30;;;19.70;95.80;;;18.23;91.19;98066.22;4988660;28;20482;-81
2022/06/04 09:38:00;;;;;;;38.07;34.30;;;19.30;99.90;;;18.16;94.43;98059.34;4986200;28;20466;-81
2022/06/04 09:40:32;;;;;;;43.47;38.97;;;19.10;99.90;;;18.23;93.70;98065.38;4988333;28;20988;-81
2022/06/04 09:43:13;;;;;;;42.90;38.50;;;19.10;99.90;;;18.43;92.65;98063.84;5004362;28;20833;-78
2022/06/04 09:45:42;;;;;;;42.67;38.17;;;19.20;99.90;;;18.65;91.67;98064.50;5035332;28;20454;-81
2022/06/04 09:48:24;;;;;;;43.30;38.90;;;19.40;99.90;;;18.78;89.68;98065.91;5037776;28;20558;-82
2022/06/04 09:50:56;;;;;;;42.77;38.53;;;19.60;99.90;;;18.79;89.98;98055.78;4987263;28;20461;-81
2022/06/04 09:53:26;;;;;;;41.00;37.20;;;19.50;99.90;;;19.27;89.29;98058.41;4986700;28;20813;-77
2022/06/04 09:55:57;;;;;;;40.90;37.00;;;19.90;99.90;;;19.97;85.32;98057.06;4986663;28;20465;-83
2022/06/04 09:58:29;;;;;;;39.47;35.60;;;20.50;96.60;;;20.32;80.54;98063.59;4986181;28;20451;-82
2022/06/04 10:01:03;;;;;;;39.23;35.13;;;20.90;92.90;;;20.26;80.39;98030.97;4988338;28;20930;-80
2022/06/04 10:03:33;;;;;;;36.00;32.50;;;21.20;92.50;;;20.51;79.62;98069.28;4989198;28;20479;-77
2022/06/04 10:06:05;;;;;;;35.90;32.40;;;21.30;92.00;;;20.92;76.82;98060.09;4986754;28;20474;-73
2022/06/04 10:09:55;;;;;;;35.30;32.10;;;21.60;91.20;;;21.18;76.82;98056.38;4989208;28;20472;-80
2022/06/04 10:11:25;;;;;;;33.80;30.70;;;21.80;91.10;;;20.85;78.08;98064.25;4985529;28;20888;-79
2022/06/04 10:13:56;;;;;;;33.90;30.97;;;21.80;90.90;;;21.31;77.07;98061.22;4987427;28;20452;-81
2022/06/04 10:16:29;;;;;;;34.27;31.07;;;22.00;91.00;;;22.24;73.82;98053.31;4986045;28;20931;-82
2022/06/04 10:19:00;;;;;;;32.00;29.10;;;22.60;90.50;;;22.67;71.05;98066.34;4989210;28;20453;-75
2022/06/04 10:21:30;;;;;;;32.10;29.30;;;23.20;89.20;;;22.70;70.38;98061.06;4987099;28;20464;-77
2022/06/04 10:24:00;;;;;;;30.80;28.20;;;23.60;87.70;;;22.55;69.96;98064.00;5002105;28;20557;-79
2022/06/04 10:26:57;;;;;;;33.10;30.10;;;23.40;87.20;;;22.53;69.77;98066.25;4985462;28;20460;-80
2022/06/04 10:29:58;;;;;;;29.73;26.97;;;23.40;86.60;;;23.58;66.05;98064.56;4983428;28;21204;-81
2022/06/04 10:32:39;;;;;;;32.23;29.33;;;24.00;85.80;;;23.58;66.67;98072.81;4983752;28;20484;-79
2022/06/04 10:35:17;;;;;;;32.10;29.20;;;24.30;85.40;;;23.18;68.73;98079.47;4991653;28;20464;-83
2022/06/04 10:38:05;;;;;;;29.50;27.03;;;24.30;85.90;;;24.17;65.86;98077.94;4990283;28;20844;-80